sensor_id;sensor_type;location;lat;lon;timestamp;pressure;altitude;pressure_sealevel;temperature;humidity
66486;BME280;53303;47.476;8.084;2023-04-15T00:00:35;94279.66;;;20.29;35.39
66486;BME280;53303;47.476;8.084;2023-04-15T00:03:01;94276.16;;;20.29;35.33
66486;BME280;53303;47.476;8.084;2023-04-15T00:05:29;94261.06;;;20.16;35.32
66486;BME280;53303;47.476;8.084;2023-04-15T00:07:57;94276.69;;;20.27;35.46
66486;BME280;53303;47.476;8.084;2023-04-15T00:10:26;94276.16;;;20.29;35.35
66486;BME280;53303;47.476;8.084;2023-04-15T00:12:51;94276.16;;;20.29;35.26
66486;BME280;53303;47.476;8.084;2023-04-15T00:15:17;94271.47;;;20.24;35.31
66486;BME280;53303;47.476;8.084;2023-04-15T00:17:45;94274.66;;;20.28;35.29
66486;BME280;53303;47.476;8.084;2023-04-15T00:20:11;94263.81;;;20.16;35.28
66486;BME280;53303;47.476;8.084;2023-04-15T00:22:36;94274.38;;;20.18;35.30
66486;BME280;53303;47.476;8.084;2023-04-15T00:25:02;94285.72;;;20.28;35.39
66486;BME280;53303;47.476;8.084;2023-04-15T00:27:28;94280.94;;;20.28;35.45
66486;BME280;53303;47.476;8.084;2023-04-15T00:29:56;94280.19;;;20.28;35.24
66486;BME280;53303;47.476;8.084;2023-04-15T00:32:21;94278.28;;;20.23;35.36
66486;BME280;53303;47.476;8.084;2023-04-15T00:34:47;94282.34;;;20.22;35.37
66486;BME280;53303;47.476;8.084;2023-04-15T00:37:13;94286.47;;;20.28;35.36
66486;BME280;53303;47.476;8.084;2023-04-15T00:39:39;94276.69;;;20.27;35.45
66486;BME280;53303;47.476;8.084;2023-04-15T00:42:07;94285.00;;;20.27;35.17
66486;BME280;53303;47.476;8.084;2023-04-15T00:44:32;94275.94;;;20.27;35.35
66486;BME280;53303;47.476;8.084;2023-04-15T00:46:59;94283.50;;;20.26;35.42
66486;BME280;53303;47.476;8.084;2023-04-15T00:49:25;94280.19;;;20.28;35.20
66486;BME280;53303;47.476;8.084;2023-04-15T00:51:51;94288.50;;;20.28;35.41
66486;BME280;53303;47.476;8.084;2023-04-15T00:54:16;94289.81;;;20.27;35.37
66486;BME280;53303;47.476;8.084;2023-04-15T00:56:42;94283.50;;;20.26;35.33
66486;BME280;53303;47.476;8.084;2023-04-15T00:59:08;94270.44;;;20.13;35.43
66486;BME280;53303;47.476;8.084;2023-04-15T01:01:35;94283.28;;;20.24;35.53
66486;BME280;53303;47.476;8.084;2023-04-15T01:04:01;94277.41;;;20.28;35.54
66486;BME280;53303;47.476;8.084;2023-04-15T01:06:28;94282.75;;;20.26;35.31
66486;BME280;53303;47.476;8.084;2023-04-15T01:08:57;94277.41;;;20.28;35.31
66486;BME280;53303;47.476;8.084;2023-04-15T01:11:23;94273.38;;;20.29;35.51
66486;BME280;53303;47.476;8.084;2023-04-15T01:13:50;94266.25;;;20.20;35.43
66486;BME280;53303;47.476;8.084;2023-04-15T01:16:18;94273.72;;;20.25;35.49
66486;BME280;53303;47.476;8.084;2023-04-15T01:18:46;94271.69;;;20.26;35.40
66486;BME280;53303;47.476;8.084;2023-04-15T01:21:11;94258.91;;;20.23;35.62
66486;BME280;53303;47.476;8.084;2023-04-15T01:23:38;94261.25;;;20.19;35.52
66486;BME280;53303;47.476;8.084;2023-04-15T01:26:05;94269.13;;;20.28;35.52
66486;BME280;53303;47.476;8.084;2023-04-15T01:28:32;94218.06;;;20.02;35.50
66486;BME280;53303;47.476;8.084;2023-04-15T01:31:05;94261.34;;;20.26;35.54
66486;BME280;53303;47.476;8.084;2023-04-15T01:33:32;94259.34;;;20.27;35.41
66486;BME280;53303;47.476;8.084;2023-04-15T01:36:00;94262.09;;;20.27;35.50
66486;BME280;53303;47.476;8.084;2023-04-15T01:38:26;94258.56;;;20.26;35.30
66486;BME280;53303;47.476;8.084;2023-04-15T01:40:52;94262.09;;;20.27;35.42
66486;BME280;53303;47.476;8.084;2023-04-15T01:43:18;94247.63;;;20.21;35.29
66486;BME280;53303;47.476;8.084;2023-04-15T01:45:48;94255.25;;;20.28;35.47
66486;BME280;53303;47.476;8.084;2023-04-15T01:48:14;94244.09;;;20.20;35.51
66486;BME280;53303;47.476;8.084;2023-04-15T01:50:39;94255.06;;;20.26;35.59
66486;BME280;53303;47.476;8.084;2023-04-15T01:53:05;94246.34;;;20.22;35.62
66486;BME280;53303;47.476;8.084;2023-04-15T01:55:30;94250.25;;;20.26;35.44
66486;BME280;53303;47.476;8.084;2023-04-15T01:57:56;94245.03;;;20.23;35.58
66486;BME280;53303;47.476;8.084;2023-04-15T02:00:22;94259.09;;;20.25;35.48
66486;BME280;53303;47.476;8.084;2023-04-15T02:02:48;94252.81;;;20.24;35.49
66486;BME280;53303;47.476;8.084;2023-04-15T02:05:16;94251.34;;;20.23;35.52
66486;BME280;53303;47.476;8.084;2023-04-15T02:07:42;94262.63;;;20.25;35.47
66486;BME280;53303;47.476;8.084;2023-04-15T02:10:08;94252.94;;;20.19;35.52
66486;BME280;53303;47.476;8.084;2023-04-15T02:12:34;94261.34;;;20.26;35.62
66486;BME280;53303;47.476;8.084;2023-04-15T02:15:01;94258.91;;;20.23;35.51
66486;BME280;53303;47.476;8.084;2023-04-15T02:17:27;94250.72;;;20.17;35.54
66486;BME280;53303;47.476;8.084;2023-04-15T02:19:54;94266.88;;;20.26;35.56
66486;BME280;53303;47.476;8.084;2023-04-15T02:22:21;94266.13;;;20.26;35.53
66486;BME280;53303;47.476;8.084;2023-04-15T02:24:46;94257.09;;;20.25;35.59
66486;BME280;53303;47.476;8.084;2023-04-15T02:27:15;94256.31;;;20.25;35.50
66486;BME280;53303;47.476;8.084;2023-04-15T02:29:43;94262.63;;;20.25;35.57
66486;BME280;53303;47.476;8.084;2023-04-15T02:32:09;94248.34;;;20.21;35.54
66486;BME280;53303;47.476;8.084;2023-04-15T02:34:35;94259.88;;;20.25;35.49
66486;BME280;53303;47.476;8.084;2023-04-15T02:37:03;94255.72;;;20.19;35.60
66486;BME280;53303;47.476;8.084;2023-04-15T02:39:29;94238.78;;;20.09;35.66
66486;BME280;53303;47.476;8.084;2023-04-15T02:41:55;94264.63;;;20.25;35.53
66486;BME280;53303;47.476;8.084;2023-04-15T02:44:23;94244.22;;;20.14;35.61
66486;BME280;53303;47.476;8.084;2023-04-15T02:46:49;94255.19;;;20.20;35.84
66486;BME280;53303;47.476;8.084;2023-04-15T02:49:17;94257.09;;;20.25;35.66
66486;BME280;53303;47.476;8.084;2023-04-15T02:51:42;94252.09;;;20.24;35.55
66486;BME280;53303;47.476;8.084;2023-04-15T02:54:08;94243.03;;;20.23;35.58
66486;BME280;53303;47.476;8.084;2023-04-15T02:56:33;94242.47;;;20.25;35.29
66486;BME280;53303;47.476;8.084;2023-04-15T02:59:01;94243.78;;;20.24;35.68
66486;BME280;53303;47.476;8.084;2023-04-15T03:01:27;94243.78;;;20.24;35.63
66486;BME280;53303;47.476;8.084;2023-04-15T03:03:55;94247.28;;;20.24;35.51
66486;BME280;53303;47.476;8.084;2023-04-15T03:06:20;94237.28;;;20.21;35.76
66486;BME280;53303;47.476;8.084;2023-04-15T03:08:45;94241.75;;;20.24;35.50
66486;BME280;53303;47.476;8.084;2023-04-15T03:11:11;94243.25;;;20.25;35.66
66486;BME280;53303;47.476;8.084;2023-04-15T03:13:39;94240.47;;;20.25;35.49
66486;BME280;53303;47.476;8.084;2023-04-15T03:16:06;94234.50;;;20.21;35.63
66486;BME280;53303;47.476;8.084;2023-04-15T03:18:31;94240.81;;;20.22;35.67
66486;BME280;53303;47.476;8.084;2023-04-15T03:20:59;94245.25;;;20.25;35.56
66486;BME280;53303;47.476;8.084;2023-04-15T03:23:24;94228.56;;;20.17;35.59
66486;BME280;53303;47.476;8.084;2023-04-15T03:25:50;94249.53;;;20.26;35.69
66486;BME280;53303;47.476;8.084;2023-04-15T03:28:18;94246.00;;;20.25;35.66
66486;BME280;53303;47.476;8.084;2023-04-15T03:30:43;94246.00;;;20.25;35.55
66486;BME280;53303;47.476;8.084;2023-04-15T03:33:08;94245.59;;;20.21;35.58
66486;BME280;53303;47.476;8.084;2023-04-15T03:35:36;94254.31;;;20.25;35.78
66486;BME280;53303;47.476;8.084;2023-04-15T03:38:02;94246.34;;;20.22;35.61
66486;BME280;53303;47.476;8.084;2023-04-15T03:40:27;94255.59;;;20.24;35.59
66486;BME280;53303;47.476;8.084;2023-04-15T03:42:53;94254.31;;;20.25;35.53
66486;BME280;53303;47.476;8.084;2023-04-15T03:45:18;94245.25;;;20.25;35.57
66486;BME280;53303;47.476;8.084;2023-04-15T03:47:48;94234.31;;;20.19;35.52
66486;BME280;53303;47.476;8.084;2023-04-15T03:50:14;94241.00;;;20.24;35.57
66486;BME280;53303;47.476;8.084;2023-04-15T03:52:39;94255.59;;;20.24;35.61
66486;BME280;53303;47.476;8.084;2023-04-15T03:55:05;94259.09;;;20.25;35.87
66486;BME280;53303;47.476;8.084;2023-04-15T03:57:30;94243.25;;;20.25;35.72
66486;BME280;53303;47.476;8.084;2023-04-15T03:59:56;94222.41;;;20.11;35.78
66486;BME280;53303;47.476;8.084;2023-04-15T04:02:21;94249.31;;;20.24;35.81
66486;BME280;53303;47.476;8.084;2023-04-15T04:04:49;94239.63;;;20.17;35.58
66486;BME280;53303;47.476;8.084;2023-04-15T04:07:15;94219.31;;;20.01;35.91
66486;BME280;53303;47.476;8.084;2023-04-15T04:09:41;94250.91;;;20.19;35.74
66486;BME280;53303;47.476;8.084;2023-04-15T04:12:06;94238.91;;;20.16;35.69
66486;BME280;53303;47.476;8.084;2023-04-15T04:14:33;94248.03;;;20.25;35.59
66486;BME280;53303;47.476;8.084;2023-04-15T04:16:58;94251.56;;;20.25;35.61
66486;BME280;53303;47.476;8.084;2023-04-15T04:19:23;94244.84;;;20.21;35.81
66486;BME280;53303;47.476;8.084;2023-04-15T04:21:50;94238.38;;;20.18;35.60
66486;BME280;53303;47.476;8.084;2023-04-15T04:24:15;94248.78;;;20.25;35.62
66486;BME280;53303;47.476;8.084;2023-04-15T04:26:40;94248.03;;;20.25;35.76
66486;BME280;53303;47.476;8.084;2023-04-15T04:29:06;94249.13;;;20.22;35.68
66486;BME280;53303;47.476;8.084;2023-04-15T04:31:32;94259.88;;;20.25;35.51
66486;BME280;53303;47.476;8.084;2023-04-15T04:33:59;94259.09;;;20.25;35.73
66486;BME280;53303;47.476;8.084;2023-04-15T04:36:25;94258.38;;;20.24;35.86
66486;BME280;53303;47.476;8.084;2023-04-15T04:38:52;94263.38;;;20.26;35.60
66486;BME280;53303;47.476;8.084;2023-04-15T04:41:18;94252.81;;;20.24;35.67
66486;BME280;53303;47.476;8.084;2023-04-15T04:43:43;94262.63;;;20.25;35.72
66486;BME280;53303;47.476;8.084;2023-04-15T04:46:09;94257.97;;;20.20;35.65
66486;BME280;53303;47.476;8.084;2023-04-15T04:48:34;94265.94;;;20.24;35.74
66486;BME280;53303;47.476;8.084;2023-04-15T04:51:00;94266.66;;;20.24;35.61
66486;BME280;53303;47.476;8.084;2023-04-15T04:53:26;94263.91;;;20.24;35.68
66486;BME280;53303;47.476;8.084;2023-04-15T04:55:54;94258.91;;;20.23;35.60
66486;BME280;53303;47.476;8.084;2023-04-15T04:58:19;94266.66;;;20.24;35.81
66486;BME280;53303;47.476;8.084;2023-04-15T05:00:45;94260.19;;;20.22;35.73
66486;BME280;53303;47.476;8.084;2023-04-15T05:03:11;94270.19;;;20.25;35.74
66486;BME280;53303;47.476;8.084;2023-04-15T05:05:36;94280.53;;;20.24;35.55
66486;BME280;53303;47.476;8.084;2023-04-15T05:08:04;94271.47;;;20.24;35.85
66486;BME280;53303;47.476;8.084;2023-04-15T05:10:30;94258.06;;;20.14;35.94
66486;BME280;53303;47.476;8.084;2023-04-15T05:12:55;94278.28;;;20.23;35.55
66486;BME280;53303;47.476;8.084;2023-04-15T05:15:20;94279.78;;;20.24;35.53
66486;BME280;53303;47.476;8.084;2023-04-15T05:17:46;94268.31;;;20.20;35.59
66486;BME280;53303;47.476;8.084;2023-04-15T05:20:12;94276.28;;;20.23;35.43
66486;BME280;53303;47.476;8.084;2023-04-15T05:22:40;94270.50;;;20.21;35.35
66486;BME280;53303;47.476;8.084;2023-04-15T05:25:08;94271.28;;;20.22;35.48
66486;BME280;53303;47.476;8.084;2023-04-15T05:27:34;94270.84;;;20.17;35.88
66486;BME280;53303;47.476;8.084;2023-04-15T05:30:00;94274.16;;;20.16;35.77
66486;BME280;53303;47.476;8.084;2023-04-15T05:32:25;94282.34;;;20.22;35.67
66486;BME280;53303;47.476;8.084;2023-04-15T05:34:51;94287.13;;;20.21;35.70
66486;BME280;53303;47.476;8.084;2023-04-15T05:37:16;94289.16;;;20.21;35.78
66486;BME280;53303;47.476;8.084;2023-04-15T05:39:45;94280.84;;;20.21;35.96
66486;BME280;53303;47.476;8.084;2023-04-15T05:42:13;94278.06;;;20.21;35.93
66486;BME280;53303;47.476;8.084;2023-04-15T05:44:38;94287.13;;;20.21;35.87
66486;BME280;53303;47.476;8.084;2023-04-15T05:47:03;94283.41;;;20.19;36.04
66486;BME280;53303;47.476;8.084;2023-04-15T05:49:32;94285.66;;;20.20;35.97
66486;BME280;53303;47.476;8.084;2023-04-15T05:52:00;94278.31;;;20.09;35.95
66486;BME280;53303;47.476;8.084;2023-04-15T05:54:26;94279.25;;;20.12;36.20
66486;BME280;53303;47.476;8.084;2023-04-15T05:56:54;94296.72;;;20.20;36.01
66486;BME280;53303;47.476;8.084;2023-04-15T05:59:22;94285.56;;;20.12;36.19
66486;BME280;53303;47.476;8.084;2023-04-15T06:01:48;94299.50;;;20.20;36.07
66486;BME280;53303;47.476;8.084;2023-04-15T06:04:14;94280.56;;;20.11;36.21
66486;BME280;53303;47.476;8.084;2023-04-15T06:06:39;94302.81;;;20.19;36.16
66486;BME280;53303;47.476;8.084;2023-04-15T06:09:05;94293.75;;;20.18;36.25
66486;BME280;53303;47.476;8.084;2023-04-15T06:11:30;94290.78;;;20.16;36.20
66486;BME280;53303;47.476;8.084;2023-04-15T06:13:56;94292.59;;;20.13;36.21
66486;BME280;53303;47.476;8.084;2023-04-15T06:16:21;94285.78;;;20.14;36.12
66486;BME280;53303;47.476;8.084;2023-04-15T06:18:47;94290.22;;;20.17;36.49
66486;BME280;53303;47.476;8.084;2023-04-15T06:21:14;94294.50;;;20.19;36.10
66486;BME280;53303;47.476;8.084;2023-04-15T06:23:39;94286.84;;;20.11;36.44
66486;BME280;53303;47.476;8.084;2023-04-15T06:26:05;94291.53;;;20.16;36.04
66486;BME280;53303;47.476;8.084;2023-04-15T06:28:31;94295.03;;;20.17;36.20
66486;BME280;53303;47.476;8.084;2023-04-15T06:30:56;94294.63;;;20.13;36.26
66486;BME280;53303;47.476;8.084;2023-04-15T06:33:25;94289.59;;;20.11;36.17
66486;BME280;53303;47.476;8.084;2023-04-15T06:35:53;94298.66;;;20.12;36.21
66486;BME280;53303;47.476;8.084;2023-04-15T06:38:21;94296.31;;;20.16;36.16
66486;BME280;53303;47.476;8.084;2023-04-15T06:40:46;94295.34;;;20.13;36.31
66486;BME280;53303;47.476;8.084;2023-04-15T06:43:12;94284.19;;;20.06;36.36
66486;BME280;53303;47.476;8.084;2023-04-15T06:45:37;94300.34;;;20.15;36.27
66486;BME280;53303;47.476;8.084;2023-04-15T06:48:02;94300.34;;;20.15;36.28
66486;BME280;53303;47.476;8.084;2023-04-15T06:50:28;94292.59;;;20.13;36.17
66486;BME280;53303;47.476;8.084;2023-04-15T06:52:54;94301.09;;;20.15;36.25
66486;BME280;53303;47.476;8.084;2023-04-15T06:55:20;94307.41;;;20.16;36.55
66486;BME280;53303;47.476;8.084;2023-04-15T06:57:45;94304.97;;;20.12;36.24
66486;BME280;53303;47.476;8.084;2023-04-15T07:00:11;94306.63;;;20.15;36.14
66486;BME280;53303;47.476;8.084;2023-04-15T07:02:39;94301.09;;;20.15;36.28
66486;BME280;53303;47.476;8.084;2023-04-15T07:05:05;94305.38;;;20.16;36.27
66486;BME280;53303;47.476;8.084;2023-04-15T07:07:31;94289.19;;;20.07;36.24
66486;BME280;53303;47.476;8.084;2023-04-15T07:09:57;94301.09;;;20.15;36.21
66486;BME280;53303;47.476;8.084;2023-04-15T07:12:22;94289.59;;;20.11;36.32
66486;BME280;53303;47.476;8.084;2023-04-15T07:14:48;94302.38;;;20.14;36.17
66486;BME280;53303;47.476;8.084;2023-04-15T07:17:14;94294.41;;;20.11;36.07
66486;BME280;53303;47.476;8.084;2023-04-15T07:19:39;94294.28;;;20.16;36.22
66486;BME280;53303;47.476;8.084;2023-04-15T07:22:04;94294.81;;;20.15;36.37
66486;BME280;53303;47.476;8.084;2023-04-15T07:24:30;94303.88;;;20.15;36.30
66486;BME280;53303;47.476;8.084;2023-04-15T07:26:56;94304.63;;;20.16;36.29
66486;BME280;53303;47.476;8.084;2023-04-15T07:29:25;94306.63;;;20.15;36.30
66486;BME280;53303;47.476;8.084;2023-04-15T07:31:53;94308.13;;;20.16;36.22
66486;BME280;53303;47.476;8.084;2023-04-15T07:34:18;94305.16;;;20.14;36.40
66486;BME280;53303;47.476;8.084;2023-04-15T07:36:45;94299.41;;;20.12;36.25
66486;BME280;53303;47.476;8.084;2023-04-15T07:39:10;94306.63;;;20.15;36.16
66486;BME280;53303;47.476;8.084;2023-04-15T07:41:36;94298.97;;;20.08;36.11
66486;BME280;53303;47.476;8.084;2023-04-15T07:44:01;94306.63;;;20.15;36.14
66486;BME280;53303;47.476;8.084;2023-04-15T07:46:26;94309.41;;;20.15;36.21
66486;BME280;53303;47.476;8.084;2023-04-15T07:48:52;94316.44;;;20.16;36.10
66486;BME280;53303;47.476;8.084;2023-04-15T07:51:19;94310.38;;;20.18;36.25
66486;BME280;53303;47.476;8.084;2023-04-15T07:53:48;94311.13;;;20.19;36.09
66486;BME280;53303;47.476;8.084;2023-04-15T07:56:14;94318.69;;;20.18;36.28
66486;BME280;53303;47.476;8.084;2023-04-15T07:58:42;94306.97;;;20.12;36.07
66486;BME280;53303;47.476;8.084;2023-04-15T08:01:08;94319.94;;;20.17;36.16
66486;BME280;53303;47.476;8.084;2023-04-15T08:03:33;94319.94;;;20.17;36.21
66486;BME280;53303;47.476;8.084;2023-04-15T08:05:59;94312.50;;;20.12;36.03
66486;BME280;53303;47.476;8.084;2023-04-15T08:08:25;94312.94;;;20.16;36.05
66486;BME280;53303;47.476;8.084;2023-04-15T08:10:50;94321.25;;;20.16;35.92
66486;BME280;53303;47.476;8.084;2023-04-15T08:13:16;94321.25;;;20.16;36.09
66486;BME280;53303;47.476;8.084;2023-04-15T08:15:42;94317.72;;;20.15;36.02
66486;BME280;53303;47.476;8.084;2023-04-15T08:18:09;94316.44;;;20.16;36.20
66486;BME280;53303;47.476;8.084;2023-04-15T08:20:35;94317.72;;;20.15;35.97
66486;BME280;53303;47.476;8.084;2023-04-15T08:23:02;94311.97;;;20.13;36.12
66486;BME280;53303;47.476;8.084;2023-04-15T08:25:27;94321.00;;;20.14;36.34
66486;BME280;53303;47.476;8.084;2023-04-15T08:27:56;94328.06;;;20.15;36.02
66486;BME280;53303;47.476;8.084;2023-04-15T08:30:22;94316.03;;;20.12;36.18
66486;BME280;53303;47.476;8.084;2023-04-15T08:32:49;94319.75;;;20.15;36.22
66486;BME280;53303;47.476;8.084;2023-04-15T08:35:15;94328.47;;;20.19;36.09
66486;BME280;53303;47.476;8.084;2023-04-15T08:37:43;94294.41;;;19.97;36.20
66486;BME280;53303;47.476;8.084;2023-04-15T08:40:09;94322.72;;;20.17;36.11
66486;BME280;53303;47.476;8.084;2023-04-15T08:42:43;94333.06;;;20.16;36.01
66486;BME280;53303;47.476;8.084;2023-04-15T08:45:13;94328.25;;;20.17;36.15
66486;BME280;53303;47.476;8.084;2023-04-15T08:47:44;94333.25;;;20.19;35.92
66486;BME280;53303;47.476;8.084;2023-04-15T08:50:11;94332.53;;;20.18;36.01
66486;BME280;53303;47.476;8.084;2023-04-15T08:52:39;94328.47;;;20.19;36.00
66486;BME280;53303;47.476;8.084;2023-04-15T08:55:08;94324.53;;;20.14;35.97
66486;BME280;53303;47.476;8.084;2023-04-15T08:57:34;94316.03;;;20.12;35.99
66486;BME280;53303;47.476;8.084;2023-04-15T09:00:04;94327.72;;;20.19;36.00
66486;BME280;53303;47.476;8.084;2023-04-15T09:02:30;94322.19;;;20.19;36.03
66486;BME280;53303;47.476;8.084;2023-04-15T09:04:56;94327.00;;;20.18;36.13
66486;BME280;53303;47.476;8.084;2023-04-15T09:07:21;94319.00;;;20.14;36.50
66486;BME280;53303;47.476;8.084;2023-04-15T09:09:47;94331.75;;;20.17;36.07
66486;BME280;53303;47.476;8.084;2023-04-15T09:12:12;94294.94;;;19.96;36.23
66486;BME280;53303;47.476;8.084;2023-04-15T09:14:44;94335.50;;;20.20;36.09
66486;BME280;53303;47.476;8.084;2023-04-15T09:17:09;94343.06;;;20.20;36.12
66486;BME280;53303;47.476;8.084;2023-04-15T09:19:39;94341.03;;;20.20;35.93
66486;BME280;53303;47.476;8.084;2023-04-15T09:22:04;94329.31;;;20.14;35.92
66486;BME280;53303;47.476;8.084;2023-04-15T09:24:38;94345.84;;;20.20;36.02
66486;BME280;53303;47.476;8.084;2023-04-15T09:27:05;94345.09;;;20.19;36.10
66486;BME280;53303;47.476;8.084;2023-04-15T09:29:31;94346.59;;;20.20;36.17
66486;BME280;53303;47.476;8.084;2023-04-15T09:32:12;94354.69;;;20.18;36.03
66486;BME280;53303;47.476;8.084;2023-04-15T09:34:38;94338.72;;;20.11;36.07
66486;BME280;53303;47.476;8.084;2023-04-15T09:37:04;94361.69;;;20.19;36.16
66486;BME280;53303;47.476;8.084;2023-04-15T09:39:49;94358.00;;;20.16;36.08
66486;BME280;53303;47.476;8.084;2023-04-15T09:42:15;94350.63;;;20.19;36.16
66486;BME280;53303;47.476;8.084;2023-04-15T09:44:44;94357.66;;;20.20;36.16
66486;BME280;53303;47.476;8.084;2023-04-15T09:47:26;94360.75;;;20.16;36.08
66486;BME280;53303;47.476;8.084;2023-04-15T09:49:59;94362.47;;;20.20;35.98
66486;BME280;53303;47.476;8.084;2023-04-15T09:52:27;94368.00;;;20.20;36.00
66486;BME280;53303;47.476;8.084;2023-04-15T09:54:56;94373.00;;;20.21;36.13
66486;BME280;53303;47.476;8.084;2023-04-15T09:57:21;94372.25;;;20.21;36.16
66486;BME280;53303;47.476;8.084;2023-04-15T09:59:48;94373.53;;;20.20;36.10
66486;BME280;53303;47.476;8.084;2023-04-15T10:02:18;94372.25;;;20.21;36.07
66486;BME280;53303;47.476;8.084;2023-04-15T10:04:47;94368.84;;;20.14;35.98
66486;BME280;53303;47.476;8.084;2023-04-15T10:07:13;94386.84;;;20.21;36.01
66486;BME280;53303;47.476;8.084;2023-04-15T10:09:42;94385.16;;;20.18;36.08
66486;BME280;53303;47.476;8.084;2023-04-15T10:12:09;94394.41;;;20.21;36.22
66486;BME280;53303;47.476;8.084;2023-04-15T10:14:39;94391.63;;;20.21;36.10
66486;BME280;53303;47.476;8.084;2023-04-15T10:17:06;94399.41;;;20.22;36.03
66486;BME280;53303;47.476;8.084;2023-04-15T10:19:36;94392.94;;;20.20;36.14
66486;BME280;53303;47.476;8.084;2023-04-15T10:22:02;94386.22;;;20.15;36.15
66486;BME280;53303;47.476;8.084;2023-04-15T10:24:30;94401.97;;;20.20;36.10
66486;BME280;53303;47.476;8.084;2023-04-15T10:26:56;94403.44;;;20.21;36.16
66486;BME280;53303;47.476;8.084;2023-04-15T10:29:24;94403.03;;;20.17;36.17
66486;BME280;53303;47.476;8.084;2023-04-15T10:31:54;94403.16;;;20.11;36.25
66486;BME280;53303;47.476;8.084;2023-04-15T10:34:20;94405.91;;;20.11;36.04
66486;BME280;53303;47.476;8.084;2023-04-15T10:36:49;94402.19;;;20.09;36.25
66486;BME280;53303;47.476;8.084;2023-04-15T10:39:54;94425.50;;;20.13;36.37
66486;BME280;53303;47.476;8.084;2023-04-15T10:42:20;94430.22;;;20.19;36.30
66486;BME280;53303;47.476;8.084;2023-04-15T10:44:49;94431.47;;;20.17;36.39
66486;BME280;53303;47.476;8.084;2023-04-15T10:47:17;94428.16;;;20.19;36.21
66486;BME280;53303;47.476;8.084;2023-04-15T10:49:45;94437.47;;;20.22;36.33
66486;BME280;53303;47.476;8.084;2023-04-15T10:52:11;94435.94;;;20.21;36.20
66486;BME280;53303;47.476;8.084;2023-04-15T10:54:40;94436.69;;;20.21;36.16
66486;BME280;53303;47.476;8.084;2023-04-15T10:57:07;94441.50;;;20.21;36.21
66486;BME280;53303;47.476;8.084;2023-04-15T10:59:38;94444.25;;;20.21;36.15
66486;BME280;53303;47.476;8.084;2023-04-15T11:05:03;94446.81;;;20.19;36.22
66486;BME280;53303;47.476;8.084;2023-04-15T11:12:54;94446.94;;;20.13;36.47
66486;BME280;53303;47.476;8.084;2023-04-15T11:18:08;94460.16;;;20.20;36.23
66486;BME280;53303;47.476;8.084;2023-04-15T11:20:35;94462.50;;;20.16;36.20
66486;BME280;53303;47.476;8.084;2023-04-15T11:23:00;94465.25;;;20.16;36.43
66486;BME280;53303;47.476;8.084;2023-04-15T11:25:28;94471.22;;;20.20;36.40
66486;BME280;53303;47.476;8.084;2023-04-15T11:27:57;94459.06;;;20.10;36.31
66486;BME280;53303;47.476;8.084;2023-04-15T11:30:24;94474.72;;;20.21;36.29
66486;BME280;53303;47.476;8.084;2023-04-15T11:32:58;94473.25;;;20.20;36.28
66486;BME280;53303;47.476;8.084;2023-04-15T11:35:23;94475.06;;;20.17;36.13
66486;BME280;53303;47.476;8.084;2023-04-15T11:37:51;94478.78;;;20.20;36.64
66486;BME280;53303;47.476;8.084;2023-04-15T11:40:28;94478.03;;;20.19;36.26
66486;BME280;53303;47.476;8.084;2023-04-15T11:43:04;94483.56;;;20.19;36.34
66486;BME280;53303;47.476;8.084;2023-04-15T11:45:30;94472.06;;;20.15;36.21
66486;BME280;53303;47.476;8.084;2023-04-15T11:48:05;94480.06;;;20.19;36.43
66486;BME280;53303;47.476;8.084;2023-04-15T11:50:31;94483.78;;;20.21;36.45
66486;BME280;53303;47.476;8.084;2023-04-15T11:53:03;94470.34;;;20.12;36.44
66486;BME280;53303;47.476;8.084;2023-04-15T11:55:29;94475.38;;;20.13;36.28
66486;BME280;53303;47.476;8.084;2023-04-15T11:58:16;94495.19;;;20.17;36.32
66486;BME280;53303;47.476;8.084;2023-04-15T12:00:58;94490.72;;;20.14;36.32
66486;BME280;53303;47.476;8.084;2023-04-15T12:09:11;94506.25;;;20.17;36.50
66486;BME280;53303;47.476;8.084;2023-04-15T12:14:19;94498.50;;;20.16;36.18
66486;BME280;53303;47.476;8.084;2023-04-15T12:16:48;94514.25;;;20.21;36.46
66486;BME280;53303;47.476;8.084;2023-04-15T12:19:16;94511.72;;;20.23;36.44
66486;BME280;53303;47.476;8.084;2023-04-15T12:21:48;94509.47;;;20.22;36.48
66486;BME280;53303;47.476;8.084;2023-04-15T12:24:13;94518.75;;;20.24;36.31
66486;BME280;53303;47.476;8.084;2023-04-15T12:26:46;94520.97;;;20.26;36.37
66486;BME280;53303;47.476;8.084;2023-04-15T12:29:15;94521.50;;;20.24;36.32
66486;BME280;53303;47.476;8.084;2023-04-15T12:34:14;94534.09;;;20.25;36.55
66486;BME280;53303;47.476;8.084;2023-04-15T12:36:42;94531.63;;;20.22;36.31
66486;BME280;53303;47.476;8.084;2023-04-15T12:39:08;94545.16;;;20.25;36.50
66486;BME280;53303;47.476;8.084;2023-04-15T12:41:33;94526.72;;;20.14;36.55
66486;BME280;53303;47.476;8.084;2023-04-15T12:43:59;94534.94;;;20.20;36.53
66486;BME280;53303;47.476;8.084;2023-04-15T12:46:25;94546.22;;;20.22;36.66
66486;BME280;53303;47.476;8.084;2023-04-15T12:48:51;94548.78;;;20.20;36.47
66486;BME280;53303;47.476;8.084;2023-04-15T12:51:20;94553.78;;;20.22;36.73
66486;BME280;53303;47.476;8.084;2023-04-15T12:53:48;94574.03;;;20.30;36.76
66486;BME280;53303;47.476;8.084;2023-04-15T12:56:14;94571.59;;;20.26;36.44
66486;BME280;53303;47.476;8.084;2023-04-15T12:58:39;94585.88;;;20.30;36.34
66486;BME280;53303;47.476;8.084;2023-04-15T13:01:05;94580.34;;;20.30;36.40
66486;BME280;53303;47.476;8.084;2023-04-15T13:03:31;94583.63;;;20.29;36.61
66486;BME280;53303;47.476;8.084;2023-04-15T13:05:56;94585.88;;;20.30;36.44
66486;BME280;53303;47.476;8.084;2023-04-15T13:08:22;94585.88;;;20.30;36.41
66486;BME280;53303;47.476;8.084;2023-04-15T13:10:48;94573.41;;;20.24;36.58
66486;BME280;53303;47.476;8.084;2023-04-15T13:13:13;94579.06;;;20.31;36.45
66486;BME280;53303;47.476;8.084;2023-04-15T13:15:39;94576.28;;;20.31;36.58
66486;BME280;53303;47.476;8.084;2023-04-15T13:18:05;94568.28;;;20.28;36.38
66486;BME280;53303;47.476;8.084;2023-04-15T13:20:31;94577.13;;;20.26;36.68